Airfield :
LOGIN :

Register | Disclaimer

   EN    FR    IT 

 










Legend :    VFR   Marginal VFR   IFR   Intensive IFR   Very Intensive IFR
Visi :
Ceiling :
>= 8 km
>= 3000ft
5 to 8 km
1000 to 3000 ft
1500m to 5 km
500 to 1000 ft
800 to 1500m
200 to 500 ft
< 800m
< 200 ft
Symbols :   Thunderstorms  Fog  Heavy snow  Heavy precipitations  Wind > 20 kt
SIGMETs :     Misc.  Thunderstorms  Icing  Turbulence  Mountain Waves  Volcanic Ashes






- Airport Elevation : 276 ft


LYVR - Vršac International

CURRENT METAR :
  • 270700Z 01002KT 4000 -RA BKN030 06/06 Q1017 NOSIG

EXPIRED METARs :
  • 270630Z 02003KT 5000 -RA BKN030 06/06 Q1017 NOSIG
  • 270600Z 06002KT 7000 -RA BKN033 06/06 Q1017 RERA NOSIG
  • 270530Z 08002KT 9999 -RA SCT013 BKN040 06/05 Q1017 NOSIG
  • 270500Z AUTO VRB01KT 9999 -RA OVC047/// 06/05 Q1017
  • 270430Z AUTO 04003KT 010V100 9999 RA OVC046/// 06/04 Q1017

TAF TAF LYVR
Valid from the 27 at 06:00 until the 28 at 06:00 UTC


270500Z 2706/2806 04005KT 9999 BKN030 TX05/2713Z TN02/2806Z
BECMG 2706/2708 3000 RA BR BKN010 BKN027
BECMG 2714/2716 6000 NSW SCT010 BKN030
BECMG 2716/2718 1500 BR BKN005
TEMPO 2802/2806 0600 FG BKN003



MET'MAP, your aeronautical weather chart ! - Copyright ORBIFLY December 2007 - Disclaimer

ORBIFLY MET'MAP TEAM :

Programming & Development : Alexandra Zaïnal
Concept & original design : Baudouin d'Aumeries
Assistance for programming : Marc-Olivier Méhu
Technical & hardware support : Manuel Goepfert

Contact : metmap@orbifly.com




SOURCES & CREDITS :

   NOAA